Impacts TAF Board INFO
FOR SITUATIONAL AWARENESS. NOT TO BE USED FOR FLIGHT PLANNING PURPOSES.
IDs:

KSTL - St Louis/Lambert Int, MO, US

Issued at 2329 UTC 22 Jun 2018
Updated at 0024 UTC 23 Jun 2018
Potential Impact None Slight Moderate High
Time2351Z 23/01Z 23/02Z 23/03Z 23/04Z 23/05Z 23/06Z 23/07Z 23/08Z 23/09Z 23/10Z 23/11Z 23/12Z 23/13Z>>
Type OBS PRVL
  [TEMP]  
PRVL
  [TEMP]  
PRVL
  [TEMP]  
PRVL PRVL PRVL PRVL PRVL PRVL PRVL PRVL PRVL PRVL
VIS 10 >6 >6 >6 >6 >6 >6 >6 >6 >6 >6 >6 >6 >6
CIG 20 25
  [18]  
25
  [18]  
25
  [18]  
18 18 18 18 18 18 18 18 18 18
Cover OVC OVC
  [BKN]  
OVC
  [BKN]  
OVC
  [BKN]  
OVC OVC OVC OVC OVC OVC OVC OVC OVC OVC
FltCat MVFR MVFR
  [MVFR]  
MVFR
  [MVFR]  
MVFR
  [MVFR]  
MVFR MVFR MVFR MVFR MVFR MVFR MVFR MVFR MVFR MVFR
WX -- --
  [--]  
--
  [--]  
--
  [--]  
-- -- -- -- -- -- -- -- -- --
WDir 300 320
[320]
320
[320]
320
[320]
VRB VRB VRB VRB VRB VRB VRB VRB VRB VRB
WSpd 7 11
  [11]  
11
  [11]  
11
  [11]  
4 4 4 4 4 4 4 4 4 4
WGst -- --
  [--]  
--
  [--]  
--
  [--]  
-- -- -- -- -- -- -- -- -- --

Raw TAF
KSTL 222329Z 2300/2406 32011KT P6SM SCT018 OVC025
  TEMPO 2300/2304 BKN018
  FM230400 VRB04KT P6SM OVC018
  FM231700 27005KT P6SM BKN025
  FM231900 26005KT P6SM BKN035
  FM240200 VRB04KT P6SM SCT150


Raw METAR
KSTL 222351Z 30007KT 10SM BKN020 OVC037 22/18 A2975 RMK AO2 SLP065 60012 T02170183 10228 20211 55002
KSTL 222342Z 29008KT 10SM BKN018 BKN037 BKN250 22/18 A2975 RMK AO2 T02170183
KSTL 222317Z 30009KT 10SM SCT018 BKN030 BKN250 22/19 A2974 RMK AO2 T02220189
KSTL 222251Z 31013KT 10SM BKN018 BKN037 BKN250 22/18 A2974 RMK AO2 SLP062 T02170183
KSTL 222151Z 32013KT 10SM SCT010 BKN018 BKN040 BKN250 22/19 A2975 RMK AO2 RAE2054 SLP065 P0000 T02170189

METAR Board
Radar Display
Forecast Discussion

FOR SITUATIONAL AWARENESS. NOT TO BE USED FOR FLIGHT PLANNING PURPOSES.